createdAt,value
2024-01-01T00:03:08.430Z,0.00
2024-01-01T00:06:30.451Z,0.00
2024-01-01T00:09:39.994Z,0.00
2024-01-01T00:12:59.778Z,0.00
2024-01-01T00:16:29.110Z,0.00
2024-01-01T00:19:58.340Z,0.00
2024-01-01T00:23:28.891Z,0.00
2024-01-01T00:26:47.845Z,0.00
2024-01-01T00:30:17.336Z,0.00
2024-01-01T00:33:47.486Z,0.00
2024-01-01T00:37:16.493Z,0.00
2024-01-01T00:40:45.380Z,0.00
2024-01-01T00:44:14.794Z,0.00
2024-01-01T00:47:44.478Z,0.00
2024-01-01T00:51:12.987Z,0.10
2024-01-01T00:54:43.144Z,0.10
2024-01-01T00:58:13.240Z,0.20
2024-01-01T01:01:43.327Z,0.20
2024-01-01T01:05:13.117Z,0.20
2024-01-01T01:08:42.897Z,0.20
2024-01-01T01:12:12.023Z,0.20
2024-01-01T01:15:33.807Z,0.10
2024-01-01T01:19:03.081Z,0.20
2024-01-01T01:22:32.315Z,0.30
2024-01-01T01:25:51.678Z,0.10
2024-01-01T01:29:19.967Z,0.20
2024-01-01T01:32:50.056Z,0.20
2024-01-01T01:36:18.255Z,0.10
2024-01-01T01:39:47.667Z,0.20
2024-01-01T01:43:17.942Z,0.20
2024-01-01T01:46:47.250Z,0.40
2024-01-01T01:50:19.827Z,0.10
2024-01-01T01:53:49.135Z,0.10
2024-01-01T01:57:17.993Z,0.30
2024-01-01T02:00:36.750Z,0.40
2024-01-01T02:04:06.463Z,0.50
2024-01-01T02:07:36.384Z,0.40
2024-01-01T02:11:06.148Z,0.30
2024-01-01T02:14:35.477Z,0.40
2024-01-01T02:17:53.862Z,0.30
2024-01-01T02:21:04.477Z,0.20
2024-01-01T02:24:22.427Z,0.20
2024-01-01T02:27:31.933Z,0.30
2024-01-01T02:30:54.489Z,0.30
2024-01-01T02:34:18.101Z,0.40
2024-01-01T02:37:47.457Z,0.60
2024-01-01T02:41:11.654Z,1.60
2024-01-01T02:44:32.614Z,1.50
2024-01-01T02:48:02.087Z,0.70
2024-01-01T02:51:30.404Z,0.60
2024-01-01T02:54:59.684Z,0.40
2024-01-01T02:58:29.128Z,0.30
2024-01-01T03:01:58.467Z,0.30
2024-01-01T03:05:28.401Z,0.20
2024-01-01T03:08:51.241Z,0.20
2024-01-01T03:12:20.183Z,0.30
2024-01-01T03:15:49.542Z,0.20
2024-01-01T03:19:18.907Z,0.30
2024-01-01T03:22:48.687Z,0.40
2024-01-01T03:26:18.021Z,0.50
2024-01-01T03:29:38.419Z,0.60
2024-01-01T03:33:08.287Z,0.80
2024-01-01T03:36:37.716Z,0.90
2024-01-01T03:40:07.553Z,0.70
2024-01-01T03:43:37.385Z,0.70
2024-01-01T03:47:07.426Z,0.60
2024-01-01T03:50:39.603Z,0.60
2024-01-01T03:53:52.990Z,0.60
2024-01-01T03:57:22.207Z,0.50
2024-01-01T04:00:51.548Z,0.50
2024-01-01T04:03:55.390Z,0.50
2024-01-01T04:07:25.413Z,0.40
2024-01-01T04:10:53.677Z,0.50
2024-01-01T04:14:22.847Z,0.50
2024-01-01T04:17:52.060Z,0.50
2024-01-01T04:21:20.831Z,0.70
2024-01-01T04:24:50.046Z,0.70
2024-01-01T04:28:19.396Z,0.90
2024-01-01T04:31:47.431Z,1.60
2024-01-01T04:35:16.765Z,2.00
2024-01-01T04:38:46.133Z,3.50
2024-01-01T04:42:15.427Z,5.30
2024-01-01T04:45:44.628Z,8.80
2024-01-01T04:49:13.711Z,11.60
2024-01-01T04:52:32.840Z,10.40
2024-01-01T04:56:02.073Z,7.70
2024-01-01T04:59:32.261Z,7.20
2024-01-01T05:03:01.498Z,4.30
2024-01-01T05:06:30.545Z,4.00
2024-01-01T05:10:00.225Z,3.20
2024-01-01T05:13:19.610Z,2.70
2024-01-01T05:16:31.486Z,3.30
2024-01-01T05:20:00.715Z,3.60
2024-01-01T05:23:30.029Z,5.80
2024-01-01T05:26:59.086Z,5.00
2024-01-01T05:30:28.458Z,3.90
2024-01-01T05:33:57.953Z,4.90
2024-01-01T05:37:17.384Z,6.20
2024-01-01T05:40:47.022Z,6.10
2024-01-01T05:44:16.378Z,4.30
2024-01-01T05:47:47.185Z,4.00
2024-01-01T05:51:16.813Z,4.10
2024-01-01T05:54:45.781Z,3.30
2024-01-01T05:58:15.208Z,2.40
2024-01-01T06:01:33.714Z,2.50
2024-01-01T06:05:02.443Z,2.30
2024-01-01T06:08:31.509Z,2.80
2024-01-01T06:12:00.681Z,2.30
2024-01-01T06:15:29.756Z,2.80
2024-01-01T06:18:59.149Z,3.60
2024-01-01T06:22:28.728Z,4.20
2024-01-01T06:25:58.433Z,3.20
2024-01-01T06:29:16.567Z,3.30
2024-01-01T06:32:45.794Z,3.50
2024-01-01T06:36:15.133Z,3.20
2024-01-01T06:39:46.642Z,3.80
2024-01-01T06:43:16.180Z,5.00
2024-01-01T06:46:45.516Z,6.10
2024-01-01T06:50:15.860Z,6.70
2024-01-01T06:53:45.309Z,7.20
2024-01-01T06:57:14.823Z,5.70
2024-01-01T07:00:44.127Z,7.50
2024-01-01T07:04:06.832Z,5.70
2024-01-01T07:07:35.956Z,6.00
2024-01-01T07:11:04.916Z,4.90
2024-01-01T07:14:34.038Z,3.70
2024-01-01T07:18:04.715Z,3.20
2024-01-01T07:21:24.649Z,3.20
2024-01-01T07:24:54.393Z,3.60
2024-01-01T07:28:23.591Z,3.90
2024-01-01T07:31:46.165Z,3.70
2024-01-01T07:35:15.284Z,5.60
2024-01-01T07:38:44.534Z,6.60
2024-01-01T07:42:07.076Z,7.40
2024-01-01T07:45:36.344Z,6.20
2024-01-01T07:49:05.828Z,7.00
2024-01-01T07:52:25.954Z,8.50
2024-01-01T07:55:55.211Z,9.20
2024-01-01T07:59:26.237Z,10.70
2024-01-01T08:02:55.409Z,9.70
2024-01-01T08:06:24.296Z,8.80
2024-01-01T08:09:56.178Z,7.90
2024-01-01T08:13:25.253Z,8.50
2024-01-01T08:16:53.715Z,7.10
2024-01-01T08:20:23.444Z,8.60
2024-01-01T08:23:55.507Z,8.10
2024-01-01T08:27:25.462Z,9.20
2024-01-01T08:30:55.017Z,7.30
2024-01-01T08:34:24.263Z,8.80
2024-01-01T08:37:54.288Z,6.90
2024-01-01T08:41:24.293Z,7.20
2024-01-01T08:44:53.498Z,9.00
2024-01-01T08:48:22.680Z,9.90
2024-01-01T08:51:51.897Z,11.40
2024-01-01T08:55:08.077Z,12.00
2024-01-01T09:01:30.412Z,9.30
2024-01-01T09:04:59.767Z,10.10
2024-01-01T09:08:29.035Z,9.20
2024-01-01T09:11:58.378Z,8.10
2024-01-01T09:15:28.215Z,7.00
2024-01-01T09:18:57.054Z,5.70
2024-01-01T09:22:27.022Z,6.50
2024-01-01T09:25:56.365Z,5.50
2024-01-01T09:29:25.403Z,5.00
2024-01-01T09:32:54.533Z,4.20
2024-01-01T09:36:25.013Z,4.20
2024-01-01T09:39:53.924Z,3.50
2024-01-01T09:43:24.118Z,4.40
2024-01-01T09:46:47.245Z,4.00
2024-01-01T09:50:08.511Z,3.90
2024-01-01T09:53:22.987Z,3.00
2024-01-01T09:56:55.499Z,2.40
2024-01-01T10:00:37.734Z,3.60
2024-01-01T10:03:52.616Z,2.70
2024-01-01T10:07:21.462Z,2.60
2024-01-01T10:10:50.834Z,2.70
2024-01-01T10:14:19.897Z,2.90
2024-01-01T10:17:55.276Z,2.10
2024-01-01T10:21:24.573Z,1.70
2024-01-01T10:25:00.259Z,2.00
2024-01-01T10:28:30.941Z,2.30
2024-01-01T10:31:32.378Z,2.20
2024-01-01T10:34:58.080Z,2.10
2024-01-01T10:38:20.678Z,1.30
2024-01-01T10:41:40.393Z,1.50
2024-01-01T10:45:02.434Z,1.80
2024-01-01T10:48:31.784Z,1.90
2024-01-01T10:51:56.544Z,3.00
2024-01-01T10:55:27.275Z,3.50
2024-01-01T10:58:56.395Z,5.30
2024-01-01T11:02:25.684Z,7.20
2024-01-01T11:06:16.123Z,6.80
2024-01-01T11:10:10.077Z,6.60
2024-01-01T11:13:45.922Z,3.20
2024-01-01T11:17:15.503Z,3.00
2024-01-01T11:20:48.248Z,3.10
2024-01-01T11:24:33.625Z,3.30
2024-01-01T11:28:15.523Z,3.70
2024-01-01T11:31:44.110Z,3.80
2024-01-01T11:35:13.603Z,3.00
2024-01-01T11:38:42.188Z,3.30
2024-01-01T11:42:12.620Z,3.60
2024-01-01T11:45:56.144Z,3.70
2024-01-01T11:49:38.429Z,2.90
2024-01-01T11:53:07.938Z,2.60
2024-01-01T11:56:37.611Z,2.20
2024-01-01T12:00:07.405Z,1.60
2024-01-01T12:03:37.321Z,1.60
2024-01-01T12:06:49.993Z,2.20
2024-01-01T12:10:19.329Z,1.20
2024-01-01T12:13:48.626Z,0.90
2024-01-01T12:17:08.325Z,0.80
2024-01-01T12:20:37.861Z,0.80
2024-01-01T12:24:06.146Z,0.60
2024-01-01T12:27:36.035Z,0.80
2024-01-01T12:31:05.439Z,0.70
2024-01-01T12:34:35.660Z,0.70
2024-01-01T12:37:51.367Z,0.60
2024-01-01T12:41:19.628Z,0.80
2024-01-01T12:44:41.632Z,1.00
2024-01-01T12:48:11.006Z,0.70
2024-01-01T12:51:26.280Z,0.90
2024-01-01T12:54:45.327Z,1.70
2024-01-01T12:58:07.388Z,1.00
2024-01-01T13:01:38.347Z,0.90
2024-01-01T13:05:07.876Z,0.80
2024-01-01T13:08:27.539Z,0.70
2024-01-01T13:11:44.031Z,0.80
2024-01-01T13:15:06.036Z,0.70
2024-01-01T13:18:35.576Z,0.70
2024-01-01T13:21:54.137Z,0.60
2024-01-01T13:25:22.780Z,0.60
2024-01-01T13:28:52.247Z,0.60
2024-01-01T13:32:21.459Z,0.50
2024-01-01T13:35:51.660Z,0.60
2024-01-01T13:39:20.924Z,0.50
2024-01-01T13:42:50.260Z,0.50
2024-01-01T13:46:22.507Z,0.40
2024-01-01T13:49:51.648Z,0.40
2024-01-01T13:53:05.275Z,0.40
2024-01-01T13:56:34.911Z,0.40
2024-01-01T14:00:04.395Z,0.40
2024-01-01T14:03:33.683Z,0.40
2024-01-01T14:06:56.035Z,0.40
2024-01-01T14:10:17.943Z,0.40
2024-01-01T14:13:36.308Z,0.30
2024-01-01T14:16:56.681Z,0.30
2024-01-01T14:20:29.265Z,0.30
2024-01-01T14:23:54.924Z,0.40
2024-01-01T14:26:54.457Z,0.30
2024-01-01T14:30:23.651Z,0.40
2024-01-01T14:33:55.084Z,0.40
2024-01-01T14:37:26.425Z,0.30
2024-01-01T14:40:56.086Z,0.40
2024-01-01T14:44:11.858Z,0.40
2024-01-01T14:47:40.950Z,0.30
2024-01-01T14:51:10.088Z,0.30
2024-01-01T14:54:33.795Z,0.20
2024-01-01T14:58:02.882Z,0.20
2024-01-01T15:01:12.193Z,0.30
2024-01-01T15:04:42.062Z,0.30
2024-01-01T15:08:11.596Z,0.30
2024-01-01T15:11:40.898Z,0.20
2024-01-01T15:15:08.860Z,0.30
2024-01-01T15:18:31.613Z,0.30
2024-01-01T15:22:00.987Z,0.30
2024-01-01T15:24:52.485Z,0.30
2024-01-01T15:28:05.138Z,0.20
2024-01-01T15:31:36.223Z,0.20
2024-01-01T15:35:05.767Z,0.20
2024-01-01T15:38:34.896Z,0.20
2024-01-01T15:42:04.229Z,0.30
2024-01-01T15:45:26.472Z,0.20
2024-01-01T15:48:35.090Z,0.30
2024-01-01T15:52:03.986Z,0.30
2024-01-01T15:55:34.135Z,0.20
2024-01-01T15:59:03.577Z,0.30
2024-01-01T16:02:15.376Z,0.30
2024-01-01T16:05:44.871Z,0.30
2024-01-01T16:09:14.055Z,0.30
2024-01-01T16:12:44.577Z,0.40
2024-01-01T16:16:00.699Z,0.40
2024-01-01T16:22:52.418Z,0.40
2024-01-01T16:26:12.891Z,0.30
2024-01-01T16:29:32.057Z,0.40
2024-01-01T16:32:55.876Z,0.50
2024-01-01T16:36:25.370Z,0.60
2024-01-01T16:39:54.806Z,0.40
2024-01-01T16:43:23.506Z,0.40
2024-01-01T16:46:54.214Z,0.30
2024-01-01T16:50:23.887Z,0.40
2024-01-01T16:53:53.192Z,0.50
2024-01-01T16:57:13.037Z,0.40
2024-01-01T17:00:42.693Z,0.40
2024-01-01T17:04:11.780Z,0.40
2024-01-01T17:07:40.477Z,0.30
2024-01-01T17:11:09.031Z,0.40
2024-01-01T17:14:38.373Z,0.30
2024-01-01T17:17:53.010Z,0.30
2024-01-01T17:21:22.032Z,0.20
2024-01-01T17:24:52.324Z,0.30
2024-01-01T17:28:14.162Z,0.20
2024-01-01T17:31:37.262Z,0.30
2024-01-01T17:34:59.433Z,0.20
2024-01-01T17:38:18.815Z,0.30
2024-01-01T17:41:48.808Z,0.20
2024-01-01T17:45:18.149Z,0.20
2024-01-01T17:48:47.189Z,0.20
2024-01-01T17:52:15.594Z,0.20
2024-01-01T17:55:37.720Z,0.20
2024-01-01T17:59:07.344Z,0.20
2024-01-01T18:02:36.339Z,0.30
2024-01-01T18:05:59.607Z,0.30
2024-01-01T18:09:29.170Z,0.20
2024-01-01T18:12:58.635Z,0.20
2024-01-01T18:16:27.871Z,0.20
2024-01-01T18:19:59.470Z,0.20
2024-01-01T18:23:29.425Z,0.10
2024-01-01T18:26:41.515Z,0.20
2024-01-01T18:30:09.763Z,0.10
2024-01-01T18:33:39.832Z,0.20
2024-01-01T18:37:09.401Z,0.10
2024-01-01T18:40:38.870Z,0.10
2024-01-01T18:43:51.167Z,0.10
2024-01-01T18:47:21.468Z,0.10
2024-01-01T18:50:50.655Z,0.20
2024-01-01T18:54:10.213Z,0.10
2024-01-01T18:57:39.215Z,0.10
2024-01-01T19:00:58.613Z,0.20
2024-01-01T19:04:29.292Z,0.20
2024-01-01T19:07:52.133Z,0.20
2024-01-01T19:11:21.466Z,0.20
2024-01-01T19:14:50.989Z,0.10
2024-01-01T19:18:22.350Z,0.20
2024-01-01T19:21:54.669Z,0.10
2024-01-01T19:25:23.693Z,0.20
2024-01-01T19:28:54.269Z,0.10
2024-01-01T19:32:23.453Z,0.50
2024-01-01T19:35:52.462Z,0.20
2024-01-01T19:39:21.319Z,0.10
2024-01-01T19:42:42.811Z,0.10
2024-01-01T19:46:04.225Z,0.10
2024-01-01T19:49:33.140Z,0.10
2024-01-01T19:53:03.304Z,0.10
2024-01-01T19:56:26.023Z,0.10
2024-01-01T19:59:49.483Z,0.10
2024-01-01T20:03:18.981Z,0.10
2024-01-01T20:06:48.211Z,0.10
2024-01-01T20:10:17.476Z,0.10
2024-01-01T20:13:31.949Z,0.10
2024-01-01T20:16:50.289Z,0.10
2024-01-01T20:20:20.312Z,0.10
2024-01-01T20:23:49.428Z,0.10
2024-01-01T20:27:26.202Z,0.10
2024-01-01T20:30:55.592Z,0.10
2024-01-01T20:34:25.284Z,0.10
2024-01-01T20:37:54.350Z,0.10
2024-01-01T20:41:24.903Z,0.10
2024-01-01T20:44:54.513Z,0.20
2024-01-01T20:48:16.379Z,0.10
2024-01-01T20:51:31.874Z,0.10
2024-01-01T20:55:00.923Z,0.10
2024-01-01T20:58:30.176Z,0.10
2024-01-01T21:02:01.049Z,0.20
2024-01-01T21:05:30.346Z,0.20
2024-01-01T21:09:00.189Z,0.10
2024-01-01T21:12:29.678Z,0.10
2024-01-01T21:16:02.812Z,0.10
2024-01-01T21:19:31.641Z,0.10
2024-01-01T21:23:01.849Z,0.10
2024-01-01T21:26:31.675Z,0.10
2024-01-01T21:30:01.270Z,0.20
2024-01-01T21:33:30.555Z,0.20
2024-01-01T21:36:51.159Z,0.20
2024-01-01T21:40:20.621Z,0.20
2024-01-01T21:43:49.791Z,0.20
2024-01-01T21:47:18.768Z,0.20
2024-01-01T21:50:48.059Z,0.30
2024-01-01T21:54:17.380Z,0.20
2024-01-01T21:57:47.387Z,0.20
2024-01-01T22:01:17.992Z,0.30
2024-01-01T22:04:47.106Z,0.30
2024-01-01T22:08:16.694Z,0.20
2024-01-01T22:11:46.614Z,0.30
2024-01-01T22:15:17.754Z,0.20
2024-01-01T22:18:30.389Z,0.20
2024-01-01T22:22:00.872Z,0.20
2024-01-01T22:25:29.210Z,0.10
2024-01-01T22:28:58.357Z,0.20
2024-01-01T22:32:28.196Z,0.20
2024-01-01T22:35:57.650Z,0.20
2024-01-01T22:39:29.179Z,0.30
2024-01-01T22:42:58.722Z,0.20
2024-01-01T22:46:20.115Z,0.20
2024-01-01T22:49:42.881Z,0.20
2024-01-01T22:53:12.292Z,0.20
2024-01-01T22:56:41.221Z,0.20
2024-01-01T23:00:10.781Z,0.20
2024-01-01T23:03:40.931Z,0.10
2024-01-01T23:07:10.473Z,0.20
2024-01-01T23:10:36.106Z,0.20
2024-01-01T23:14:05.286Z,0.20
2024-01-01T23:17:34.616Z,0.20
2024-01-01T23:21:03.778Z,0.20
2024-01-01T23:24:34.548Z,0.30
2024-01-01T23:28:03.744Z,0.10
2024-01-01T23:31:17.942Z,0.20
2024-01-01T23:34:46.829Z,0.20
2024-01-01T23:38:09.303Z,0.10
2024-01-01T23:41:39.022Z,0.20
2024-01-01T23:45:02.042Z,0.10
2024-01-01T23:48:32.667Z,0.10
2024-01-01T23:51:45.632Z,0.10
2024-01-01T23:55:14.864Z,0.20
2024-01-01T23:58:44.047Z,0.10
